sensor_id;sensor_type;location;lat;lon;timestamp;P1;durP1;ratioP1;P2;durP2;ratioP2
47259;SDS011;32999;52.412;4.890;2023-06-14T00:04:10;4.68;;;2.40;;
47259;SDS011;32999;52.412;4.890;2023-06-14T00:09:12;4.13;;;2.05;;
47259;SDS011;32999;52.412;4.890;2023-06-14T00:14:15;4.80;;;2.10;;
47259;SDS011;32999;52.412;4.890;2023-06-14T00:19:17;5.03;;;2.42;;
47259;SDS011;32999;52.412;4.890;2023-06-14T00:24:19;4.35;;;2.20;;
47259;SDS011;32999;52.412;4.890;2023-06-14T00:29:22;5.78;;;1.88;;
47259;SDS011;32999;52.412;4.890;2023-06-14T00:34:24;5.20;;;1.88;;
47259;SDS011;32999;52.412;4.890;2023-06-14T00:39:26;4.95;;;1.73;;
47259;SDS011;32999;52.412;4.890;2023-06-14T00:44:29;7.40;;;2.50;;
47259;SDS011;32999;52.412;4.890;2023-06-14T00:49:31;3.33;;;1.70;;
47259;SDS011;32999;52.412;4.890;2023-06-14T00:54:32;8.07;;;2.00;;
47259;SDS011;32999;52.412;4.890;2023-06-14T00:59:37;7.78;;;2.38;;
47259;SDS011;32999;52.412;4.890;2023-06-14T01:04:43;6.50;;;1.80;;
47259;SDS011;32999;52.412;4.890;2023-06-14T01:09:49;6.70;;;2.05;;
47259;SDS011;32999;52.412;4.890;2023-06-14T01:15:01;6.32;;;1.85;;
47259;SDS011;32999;52.412;4.890;2023-06-14T01:20:03;8.13;;;1.65;;
47259;SDS011;32999;52.412;4.890;2023-06-14T01:25:11;4.95;;;1.80;;
47259;SDS011;32999;52.412;4.890;2023-06-14T01:35:15;5.50;;;1.90;;
47259;SDS011;32999;52.412;4.890;2023-06-14T01:40:19;4.82;;;1.70;;
47259;SDS011;32999;52.412;4.890;2023-06-14T01:45:22;4.65;;;1.58;;
47259;SDS011;32999;52.412;4.890;2023-06-14T01:50:27;3.90;;;1.83;;
47259;SDS011;32999;52.412;4.890;2023-06-14T01:55:31;3.03;;;1.60;;
47259;SDS011;32999;52.412;4.890;2023-06-14T02:00:37;6.47;;;2.08;;
47259;SDS011;32999;52.412;4.890;2023-06-14T02:05:38;4.95;;;1.60;;
47259;SDS011;32999;52.412;4.890;2023-06-14T02:10:42;4.25;;;1.85;;
47259;SDS011;32999;52.412;4.890;2023-06-14T02:15:43;3.85;;;1.77;;
47259;SDS011;32999;52.412;4.890;2023-06-14T02:20:45;6.88;;;2.22;;
47259;SDS011;32999;52.412;4.890;2023-06-14T02:25:48;8.18;;;2.05;;
47259;SDS011;32999;52.412;4.890;2023-06-14T02:30:50;6.68;;;2.00;;
47259;SDS011;32999;52.412;4.890;2023-06-14T02:35:52;4.75;;;1.60;;
47259;SDS011;32999;52.412;4.890;2023-06-14T02:40:55;5.78;;;1.77;;
47259;SDS011;32999;52.412;4.890;2023-06-14T02:45:56;5.35;;;1.60;;
47259;SDS011;32999;52.412;4.890;2023-06-14T02:50:58;4.70;;;1.70;;
47259;SDS011;32999;52.412;4.890;2023-06-14T02:56:01;3.85;;;1.70;;
47259;SDS011;32999;52.412;4.890;2023-06-14T03:01:04;5.03;;;1.67;;
47259;SDS011;32999;52.412;4.890;2023-06-14T03:06:07;2.75;;;1.70;;
47259;SDS011;32999;52.412;4.890;2023-06-14T03:11:14;5.72;;;1.70;;
47259;SDS011;32999;52.412;4.890;2023-06-14T03:16:18;6.88;;;2.00;;
47259;SDS011;32999;52.412;4.890;2023-06-14T03:21:21;12.05;;;2.95;;
47259;SDS011;32999;52.412;4.890;2023-06-14T03:26:24;4.22;;;1.40;;
47259;SDS011;32999;52.412;4.890;2023-06-14T03:31:28;13.25;;;2.00;;
47259;SDS011;32999;52.412;4.890;2023-06-14T03:36:32;3.08;;;1.60;;
47259;SDS011;32999;52.412;4.890;2023-06-14T03:41:36;6.03;;;1.70;;
47259;SDS011;32999;52.412;4.890;2023-06-14T03:46:38;4.65;;;1.88;;
47259;SDS011;32999;52.412;4.890;2023-06-14T03:51:39;3.72;;;1.60;;
47259;SDS011;32999;52.412;4.890;2023-06-14T03:56:43;2.63;;;1.60;;
47259;SDS011;32999;52.412;4.890;2023-06-14T04:01:45;3.85;;;1.83;;
47259;SDS011;32999;52.412;4.890;2023-06-14T04:06:47;5.20;;;1.83;;
47259;SDS011;32999;52.412;4.890;2023-06-14T04:11:51;2.25;;;1.33;;
47259;SDS011;32999;52.412;4.890;2023-06-14T04:16:53;6.43;;;2.10;;
47259;SDS011;32999;52.412;4.890;2023-06-14T04:21:55;7.88;;;2.10;;
47259;SDS011;32999;52.412;4.890;2023-06-14T04:26:58;2.45;;;1.50;;
47259;SDS011;32999;52.412;4.890;2023-06-14T04:32:01;4.03;;;1.73;;
47259;SDS011;32999;52.412;4.890;2023-06-14T04:37:03;7.20;;;2.25;;
47259;SDS011;32999;52.412;4.890;2023-06-14T04:42:07;3.75;;;1.67;;
47259;SDS011;32999;52.412;4.890;2023-06-14T04:47:12;9.32;;;1.90;;
47259;SDS011;32999;52.412;4.890;2023-06-14T04:52:14;4.57;;;1.35;;
47259;SDS011;32999;52.412;4.890;2023-06-14T04:57:19;3.13;;;1.60;;
47259;SDS011;32999;52.412;4.890;2023-06-14T05:02:22;3.17;;;2.17;;
47259;SDS011;32999;52.412;4.890;2023-06-14T05:07:24;8.07;;;1.60;;
47259;SDS011;32999;52.412;4.890;2023-06-14T05:12:27;13.13;;;1.92;;
47259;SDS011;32999;52.412;4.890;2023-06-14T05:22:31;3.53;;;1.83;;
47259;SDS011;32999;52.412;4.890;2023-06-14T05:27:35;2.88;;;1.70;;
47259;SDS011;32999;52.412;4.890;2023-06-14T05:32:37;4.83;;;1.77;;
47259;SDS011;32999;52.412;4.890;2023-06-14T05:37:38;4.05;;;1.42;;
47259;SDS011;32999;52.412;4.890;2023-06-14T05:42:42;3.65;;;1.77;;
47259;SDS011;32999;52.412;4.890;2023-06-14T05:47:44;3.77;;;1.50;;
47259;SDS011;32999;52.412;4.890;2023-06-14T05:52:45;5.88;;;2.22;;
47259;SDS011;32999;52.412;4.890;2023-06-14T05:57:49;4.07;;;1.63;;
47259;SDS011;32999;52.412;4.890;2023-06-14T06:07:53;5.40;;;1.67;;
47259;SDS011;32999;52.412;4.890;2023-06-14T06:12:56;4.82;;;1.95;;
47259;SDS011;32999;52.412;4.890;2023-06-14T06:17:58;3.55;;;1.88;;
47259;SDS011;32999;52.412;4.890;2023-06-14T06:22:59;5.47;;;1.50;;
47259;SDS011;32999;52.412;4.890;2023-06-14T06:28:03;3.88;;;1.80;;
47259;SDS011;32999;52.412;4.890;2023-06-14T06:33:05;3.23;;;1.30;;
47259;SDS011;32999;52.412;4.890;2023-06-14T06:38:06;4.20;;;1.52;;
47259;SDS011;32999;52.412;4.890;2023-06-14T06:43:10;5.85;;;1.90;;
47259;SDS011;32999;52.412;4.890;2023-06-14T06:48:13;3.38;;;2.00;;
47259;SDS011;32999;52.412;4.890;2023-06-14T06:53:15;4.40;;;2.05;;
47259;SDS011;32999;52.412;4.890;2023-06-14T06:58:19;2.17;;;1.48;;
47259;SDS011;32999;52.412;4.890;2023-06-14T07:03:22;3.13;;;1.58;;
47259;SDS011;32999;52.412;4.890;2023-06-14T07:08:23;5.75;;;2.75;;
47259;SDS011;32999;52.412;4.890;2023-06-14T07:13:26;8.43;;;2.28;;
47259;SDS011;32999;52.412;4.890;2023-06-14T07:18:28;4.13;;;1.70;;
47259;SDS011;32999;52.412;4.890;2023-06-14T07:23:30;2.17;;;1.52;;
47259;SDS011;32999;52.412;4.890;2023-06-14T07:28:34;6.00;;;1.90;;
47259;SDS011;32999;52.412;4.890;2023-06-14T07:33:35;5.28;;;2.20;;
47259;SDS011;32999;52.412;4.890;2023-06-14T07:38:37;7.68;;;1.65;;
47259;SDS011;32999;52.412;4.890;2023-06-14T07:43:42;8.10;;;2.35;;
47259;SDS011;32999;52.412;4.890;2023-06-14T07:48:43;14.13;;;1.73;;
47259;SDS011;32999;52.412;4.890;2023-06-14T07:53:45;3.35;;;1.80;;
47259;SDS011;32999;52.412;4.890;2023-06-14T07:58:48;5.25;;;1.90;;
47259;SDS011;32999;52.412;4.890;2023-06-14T08:03:50;6.30;;;1.83;;
47259;SDS011;32999;52.412;4.890;2023-06-14T08:08:51;6.95;;;2.53;;
47259;SDS011;32999;52.412;4.890;2023-06-14T08:13:55;4.53;;;2.08;;
47259;SDS011;32999;52.412;4.890;2023-06-14T08:18:56;3.93;;;1.60;;
47259;SDS011;32999;52.412;4.890;2023-06-14T08:23:58;4.45;;;1.80;;
47259;SDS011;32999;52.412;4.890;2023-06-14T08:29:01;2.75;;;1.90;;
47259;SDS011;32999;52.412;4.890;2023-06-14T08:34:03;3.15;;;1.42;;
47259;SDS011;32999;52.412;4.890;2023-06-14T08:39:06;5.47;;;1.70;;
47259;SDS011;32999;52.412;4.890;2023-06-14T08:44:10;2.10;;;1.53;;
47259;SDS011;32999;52.412;4.890;2023-06-14T08:49:12;3.37;;;1.60;;
47259;SDS011;32999;52.412;4.890;2023-06-14T08:54:14;6.57;;;1.58;;
47259;SDS011;32999;52.412;4.890;2023-06-14T08:59:18;5.40;;;1.40;;
47259;SDS011;32999;52.412;4.890;2023-06-14T09:04:21;5.82;;;1.50;;
47259;SDS011;32999;52.412;4.890;2023-06-14T09:09:24;7.27;;;1.70;;
47259;SDS011;32999;52.412;4.890;2023-06-14T09:14:27;4.05;;;1.45;;
47259;SDS011;32999;52.412;4.890;2023-06-14T09:19:29;2.88;;;1.20;;
47259;SDS011;32999;52.412;4.890;2023-06-14T09:24:30;2.33;;;1.33;;
47259;SDS011;32999;52.412;4.890;2023-06-14T09:29:33;4.65;;;1.60;;
47259;SDS011;32999;52.412;4.890;2023-06-14T09:34:35;17.80;;;3.03;;
47259;SDS011;32999;52.412;4.890;2023-06-14T09:39:46;3.88;;;1.45;;
47259;SDS011;32999;52.412;4.890;2023-06-14T09:44:53;2.08;;;1.45;;
47259;SDS011;32999;52.412;4.890;2023-06-14T09:49:56;4.28;;;1.27;;
47259;SDS011;32999;52.412;4.890;2023-06-14T09:54:58;3.28;;;1.20;;
47259;SDS011;32999;52.412;4.890;2023-06-14T10:00:02;5.50;;;1.10;;
47259;SDS011;32999;52.412;4.890;2023-06-14T10:05:11;2.28;;;1.08;;
47259;SDS011;32999;52.412;4.890;2023-06-14T10:10:16;4.38;;;1.13;;
47259;SDS011;32999;52.412;4.890;2023-06-14T10:15:20;1.40;;;0.98;;
47259;SDS011;32999;52.412;4.890;2023-06-14T10:20:30;1.40;;;0.95;;
47259;SDS011;32999;52.412;4.890;2023-06-14T10:25:38;1.45;;;0.90;;
47259;SDS011;32999;52.412;4.890;2023-06-14T10:30:42;2.72;;;1.15;;
47259;SDS011;32999;52.412;4.890;2023-06-14T10:36:10;1.67;;;1.02;;
47259;SDS011;32999;52.412;4.890;2023-06-14T10:41:32;2.22;;;1.27;;
47259;SDS011;32999;52.412;4.890;2023-06-14T10:46:38;2.72;;;1.23;;
47259;SDS011;32999;52.412;4.890;2023-06-14T10:51:41;3.72;;;1.85;;
47259;SDS011;32999;52.412;4.890;2023-06-14T10:56:46;2.70;;;1.15;;
47259;SDS011;32999;52.412;4.890;2023-06-14T11:01:53;1.65;;;1.10;;
47259;SDS011;32999;52.412;4.890;2023-06-14T11:07:10;3.63;;;1.50;;
47259;SDS011;32999;52.412;4.890;2023-06-14T11:12:31;2.47;;;1.30;;
47259;SDS011;32999;52.412;4.890;2023-06-14T11:17:37;5.82;;;1.20;;
47259;SDS011;32999;52.412;4.890;2023-06-14T11:22:39;2.85;;;1.33;;
47259;SDS011;32999;52.412;4.890;2023-06-14T11:27:43;4.03;;;1.10;;
47259;SDS011;32999;52.412;4.890;2023-06-14T11:32:47;3.20;;;1.13;;
47259;SDS011;32999;52.412;4.890;2023-06-14T11:37:52;2.75;;;1.60;;
47259;SDS011;32999;52.412;4.890;2023-06-14T11:43:00;3.40;;;1.33;;
47259;SDS011;32999;52.412;4.890;2023-06-14T11:48:04;0.88;;;0.80;;
47259;SDS011;32999;52.412;4.890;2023-06-14T11:53:08;4.20;;;1.63;;
47259;SDS011;32999;52.412;4.890;2023-06-14T11:58:10;1.08;;;0.82;;
47259;SDS011;32999;52.412;4.890;2023-06-14T12:03:13;1.05;;;0.90;;
47259;SDS011;32999;52.412;4.890;2023-06-14T12:08:15;1.58;;;0.90;;
47259;SDS011;32999;52.412;4.890;2023-06-14T12:13:17;8.70;;;1.30;;
47259;SDS011;32999;52.412;4.890;2023-06-14T12:18:21;1.87;;;1.00;;
47259;SDS011;32999;52.412;4.890;2023-06-14T12:23:39;1.30;;;1.13;;
47259;SDS011;32999;52.412;4.890;2023-06-14T12:28:44;1.67;;;0.88;;
47259;SDS011;32999;52.412;4.890;2023-06-14T12:33:47;1.27;;;1.15;;
47259;SDS011;32999;52.412;4.890;2023-06-14T12:38:50;5.18;;;1.42;;
47259;SDS011;32999;52.412;4.890;2023-06-14T12:43:53;1.50;;;0.98;;
47259;SDS011;32999;52.412;4.890;2023-06-14T12:48:56;1.27;;;1.00;;
47259;SDS011;32999;52.412;4.890;2023-06-14T12:53:58;1.30;;;1.05;;
47259;SDS011;32999;52.412;4.890;2023-06-14T12:59:00;5.43;;;1.25;;
47259;SDS011;32999;52.412;4.890;2023-06-14T13:04:03;3.45;;;0.93;;
47259;SDS011;32999;52.412;4.890;2023-06-14T13:09:05;1.98;;;0.90;;
47259;SDS011;32999;52.412;4.890;2023-06-14T13:14:08;3.50;;;1.05;;
47259;SDS011;32999;52.412;4.890;2023-06-14T13:19:11;1.27;;;1.00;;
47259;SDS011;32999;52.412;4.890;2023-06-14T13:24:13;3.75;;;1.00;;
47259;SDS011;32999;52.412;4.890;2023-06-14T13:29:15;1.63;;;1.20;;
47259;SDS011;32999;52.412;4.890;2023-06-14T13:34:18;2.35;;;1.10;;
47259;SDS011;32999;52.412;4.890;2023-06-14T13:39:20;2.75;;;1.00;;
47259;SDS011;32999;52.412;4.890;2023-06-14T13:44:22;2.45;;;0.82;;
47259;SDS011;32999;52.412;4.890;2023-06-14T13:49:26;4.17;;;1.03;;
47259;SDS011;32999;52.412;4.890;2023-06-14T13:54:28;1.77;;;1.17;;
47259;SDS011;32999;52.412;4.890;2023-06-14T13:59:29;2.30;;;1.00;;
47259;SDS011;32999;52.412;4.890;2023-06-14T14:04:33;0.95;;;0.85;;
47259;SDS011;32999;52.412;4.890;2023-06-14T14:09:35;3.92;;;0.93;;
47259;SDS011;32999;52.412;4.890;2023-06-14T14:14:39;1.33;;;0.80;;
47259;SDS011;32999;52.412;4.890;2023-06-14T14:19:42;3.92;;;1.90;;
47259;SDS011;32999;52.412;4.890;2023-06-14T14:24:44;3.28;;;1.20;;
47259;SDS011;32999;52.412;4.890;2023-06-14T14:29:47;3.57;;;1.00;;
47259;SDS011;32999;52.412;4.890;2023-06-14T14:34:50;2.95;;;1.30;;
47259;SDS011;32999;52.412;4.890;2023-06-14T14:39:51;2.38;;;1.00;;
47259;SDS011;32999;52.412;4.890;2023-06-14T14:44:53;2.97;;;1.25;;
47259;SDS011;32999;52.412;4.890;2023-06-14T14:49:56;1.60;;;1.10;;
47259;SDS011;32999;52.412;4.890;2023-06-14T14:54:58;3.97;;;1.08;;
47259;SDS011;32999;52.412;4.890;2023-06-14T15:00:00;8.05;;;3.13;;
47259;SDS011;32999;52.412;4.890;2023-06-14T15:05:04;3.03;;;1.38;;
47259;SDS011;32999;52.412;4.890;2023-06-14T15:10:07;3.22;;;1.17;;
47259;SDS011;32999;52.412;4.890;2023-06-14T15:15:09;1.40;;;0.85;;
47259;SDS011;32999;52.412;4.890;2023-06-14T15:20:13;4.07;;;1.10;;
47259;SDS011;32999;52.412;4.890;2023-06-14T15:30:16;1.65;;;1.00;;
47259;SDS011;32999;52.412;4.890;2023-06-14T15:35:19;2.88;;;1.33;;
47259;SDS011;32999;52.412;4.890;2023-06-14T15:40:21;1.75;;;0.95;;
47259;SDS011;32999;52.412;4.890;2023-06-14T15:45:23;4.65;;;1.38;;
47259;SDS011;32999;52.412;4.890;2023-06-14T15:50:27;6.80;;;1.10;;
47259;SDS011;32999;52.412;4.890;2023-06-14T15:55:28;2.58;;;1.40;;
47259;SDS011;32999;52.412;4.890;2023-06-14T16:00:30;4.25;;;1.48;;
47259;SDS011;32999;52.412;4.890;2023-06-14T16:05:34;2.70;;;1.20;;
47259;SDS011;32999;52.412;4.890;2023-06-14T16:10:35;2.40;;;1.23;;
47259;SDS011;32999;52.412;4.890;2023-06-14T16:15:37;3.33;;;1.50;;
47259;SDS011;32999;52.412;4.890;2023-06-14T16:20:40;2.80;;;1.67;;
47259;SDS011;32999;52.412;4.890;2023-06-14T16:25:42;1.52;;;1.20;;
47259;SDS011;32999;52.412;4.890;2023-06-14T16:30:43;3.17;;;1.13;;
47259;SDS011;32999;52.412;4.890;2023-06-14T16:35:46;2.08;;;1.00;;
47259;SDS011;32999;52.412;4.890;2023-06-14T16:40:48;1.58;;;1.20;;
47259;SDS011;32999;52.412;4.890;2023-06-14T16:45:50;2.53;;;1.23;;
47259;SDS011;32999;52.412;4.890;2023-06-14T16:50:53;1.65;;;1.13;;
47259;SDS011;32999;52.412;4.890;2023-06-14T16:55:55;2.72;;;1.10;;
47259;SDS011;32999;52.412;4.890;2023-06-14T17:00:56;2.17;;;1.20;;
47259;SDS011;32999;52.412;4.890;2023-06-14T17:05:59;2.33;;;1.48;;
47259;SDS011;32999;52.412;4.890;2023-06-14T17:11:01;1.95;;;1.00;;
47259;SDS011;32999;52.412;4.890;2023-06-14T17:16:03;1.85;;;1.10;;
47259;SDS011;32999;52.412;4.890;2023-06-14T17:26:09;2.88;;;1.42;;
47259;SDS011;32999;52.412;4.890;2023-06-14T17:31:11;4.72;;;1.27;;
47259;SDS011;32999;52.412;4.890;2023-06-14T17:36:14;1.67;;;1.08;;
47259;SDS011;32999;52.412;4.890;2023-06-14T17:41:16;2.22;;;0.90;;
47259;SDS011;32999;52.412;4.890;2023-06-14T17:46:19;1.23;;;0.95;;
47259;SDS011;32999;52.412;4.890;2023-06-14T17:51:23;3.42;;;0.82;;
47259;SDS011;32999;52.412;4.890;2023-06-14T17:56:26;1.50;;;1.25;;
47259;SDS011;32999;52.412;4.890;2023-06-14T18:01:28;1.35;;;0.80;;
47259;SDS011;32999;52.412;4.890;2023-06-14T18:06:31;1.45;;;0.80;;
47259;SDS011;32999;52.412;4.890;2023-06-14T18:11:32;4.38;;;2.05;;
47259;SDS011;32999;52.412;4.890;2023-06-14T18:16:34;1.80;;;0.88;;
47259;SDS011;32999;52.412;4.890;2023-06-14T18:21:37;2.65;;;0.95;;
47259;SDS011;32999;52.412;4.890;2023-06-14T18:26:40;3.20;;;1.17;;
47259;SDS011;32999;52.412;4.890;2023-06-14T18:31:42;2.10;;;0.97;;
47259;SDS011;32999;52.412;4.890;2023-06-14T18:36:46;4.38;;;1.40;;
47259;SDS011;32999;52.412;4.890;2023-06-14T18:41:47;3.50;;;1.20;;
47259;SDS011;32999;52.412;4.890;2023-06-14T18:46:49;1.75;;;0.80;;
47259;SDS011;32999;52.412;4.890;2023-06-14T18:51:52;4.20;;;1.17;;
47259;SDS011;32999;52.412;4.890;2023-06-14T18:56:54;1.50;;;1.00;;
47259;SDS011;32999;52.412;4.890;2023-06-14T19:01:56;2.17;;;0.82;;
47259;SDS011;32999;52.412;4.890;2023-06-14T19:06:59;1.00;;;0.80;;
47259;SDS011;32999;52.412;4.890;2023-06-14T19:12:01;1.65;;;0.93;;
47259;SDS011;32999;52.412;4.890;2023-06-14T19:17:02;1.98;;;0.80;;
47259;SDS011;32999;52.412;4.890;2023-06-14T19:22:06;1.75;;;0.95;;
47259;SDS011;32999;52.412;4.890;2023-06-14T19:27:08;3.40;;;0.60;;
47259;SDS011;32999;52.412;4.890;2023-06-14T19:32:11;1.75;;;0.90;;
47259;SDS011;32999;52.412;4.890;2023-06-14T19:37:14;2.60;;;0.80;;
47259;SDS011;32999;52.412;4.890;2023-06-14T19:42:16;4.05;;;0.88;;
47259;SDS011;32999;52.412;4.890;2023-06-14T19:47:18;2.53;;;1.00;;
47259;SDS011;32999;52.412;4.890;2023-06-14T19:52:21;1.20;;;0.85;;
47259;SDS011;32999;52.412;4.890;2023-06-14T19:57:26;2.65;;;1.27;;
47259;SDS011;32999;52.412;4.890;2023-06-14T20:02:28;3.53;;;1.10;;
47259;SDS011;32999;52.412;4.890;2023-06-14T20:07:31;2.47;;;1.05;;
47259;SDS011;32999;52.412;4.890;2023-06-14T20:12:37;1.37;;;1.10;;
47259;SDS011;32999;52.412;4.890;2023-06-14T20:17:39;4.03;;;1.40;;
47259;SDS011;32999;52.412;4.890;2023-06-14T20:22:43;2.40;;;1.30;;
47259;SDS011;32999;52.412;4.890;2023-06-14T20:27:44;2.00;;;1.02;;
47259;SDS011;32999;52.412;4.890;2023-06-14T20:32:47;2.00;;;1.00;;
47259;SDS011;32999;52.412;4.890;2023-06-14T20:37:50;1.88;;;1.00;;
47259;SDS011;32999;52.412;4.890;2023-06-14T20:42:52;1.50;;;0.90;;
47259;SDS011;32999;52.412;4.890;2023-06-14T20:47:56;2.30;;;0.90;;
47259;SDS011;32999;52.412;4.890;2023-06-14T20:52:59;2.70;;;1.60;;
47259;SDS011;32999;52.412;4.890;2023-06-14T20:58:01;1.10;;;0.93;;
47259;SDS011;32999;52.412;4.890;2023-06-14T21:03:03;2.22;;;0.85;;
47259;SDS011;32999;52.412;4.890;2023-06-14T21:08:09;1.20;;;1.00;;
47259;SDS011;32999;52.412;4.890;2023-06-14T21:13:10;1.73;;;1.23;;
47259;SDS011;32999;52.412;4.890;2023-06-14T21:18:12;6.32;;;1.40;;
47259;SDS011;32999;52.412;4.890;2023-06-14T21:23:16;3.38;;;1.30;;
47259;SDS011;32999;52.412;4.890;2023-06-14T21:28:18;4.17;;;1.87;;
47259;SDS011;32999;52.412;4.890;2023-06-14T21:33:21;2.75;;;1.45;;
47259;SDS011;32999;52.412;4.890;2023-06-14T21:38:24;3.70;;;1.85;;
47259;SDS011;32999;52.412;4.890;2023-06-14T21:43:26;6.90;;;2.40;;
47259;SDS011;32999;52.412;4.890;2023-06-14T21:48:28;3.97;;;1.80;;
47259;SDS011;32999;52.412;4.890;2023-06-14T21:53:31;5.60;;;3.55;;
47259;SDS011;32999;52.412;4.890;2023-06-14T21:58:32;9.07;;;2.63;;
47259;SDS011;32999;52.412;4.890;2023-06-14T22:03:34;4.90;;;2.75;;
47259;SDS011;32999;52.412;4.890;2023-06-14T22:08:37;5.32;;;2.45;;
47259;SDS011;32999;52.412;4.890;2023-06-14T22:13:41;3.05;;;1.98;;
47259;SDS011;32999;52.412;4.890;2023-06-14T22:18:43;5.57;;;2.03;;
47259;SDS011;32999;52.412;4.890;2023-06-14T22:23:47;8.38;;;3.10;;
47259;SDS011;32999;52.412;4.890;2023-06-14T22:28:49;3.97;;;2.00;;
47259;SDS011;32999;52.412;4.890;2023-06-14T22:33:50;4.30;;;2.17;;
47259;SDS011;32999;52.412;4.890;2023-06-14T22:38:54;7.55;;;2.72;;
47259;SDS011;32999;52.412;4.890;2023-06-14T22:43:57;3.83;;;2.00;;
47259;SDS011;32999;52.412;4.890;2023-06-14T22:48:59;5.38;;;2.25;;
47259;SDS011;32999;52.412;4.890;2023-06-14T22:54:03;6.18;;;2.20;;
47259;SDS011;32999;52.412;4.890;2023-06-14T22:59:05;4.70;;;2.08;;
47259;SDS011;32999;52.412;4.890;2023-06-14T23:04:07;3.65;;;2.00;;
47259;SDS011;32999;52.412;4.890;2023-06-14T23:09:10;2.65;;;1.73;;
47259;SDS011;32999;52.412;4.890;2023-06-14T23:14:12;4.07;;;2.13;;
47259;SDS011;32999;52.412;4.890;2023-06-14T23:19:14;4.85;;;1.75;;
47259;SDS011;32999;52.412;4.890;2023-06-14T23:24:18;7.53;;;1.83;;
47259;SDS011;32999;52.412;4.890;2023-06-14T23:29:20;6.53;;;1.87;;
47259;SDS011;32999;52.412;4.890;2023-06-14T23:34:23;2.97;;;1.92;;
47259;SDS011;32999;52.412;4.890;2023-06-14T23:39:27;9.43;;;2.47;;
47259;SDS011;32999;52.412;4.890;2023-06-14T23:44:29;5.57;;;2.00;;
47259;SDS011;32999;52.412;4.890;2023-06-14T23:49:36;5.43;;;2.05;;
47259;SDS011;32999;52.412;4.890;2023-06-14T23:54:39;7.82;;;1.85;;
47259;SDS011;32999;52.412;4.890;2023-06-14T23:59:42;2.67;;;1.90;;
